sensor_id;sensor_type;location;lat;lon;timestamp;P1;durP1;ratioP1;P2;durP2;ratioP2
16965;SDS011;8599;47.852;12.070;2024-01-10T00:00:07;33.93;;;12.80;;
16965;SDS011;8599;47.852;12.070;2024-01-10T00:02:35;39.27;;;15.40;;
16965;SDS011;8599;47.852;12.070;2024-01-10T00:05:01;39.97;;;14.97;;
16965;SDS011;8599;47.852;12.070;2024-01-10T00:07:29;38.97;;;14.73;;
16965;SDS011;8599;47.852;12.070;2024-01-10T00:09:56;32.07;;;14.00;;
16965;SDS011;8599;47.852;12.070;2024-01-10T00:12:25;29.30;;;13.97;;
16965;SDS011;8599;47.852;12.070;2024-01-10T00:14:51;35.73;;;13.93;;
16965;SDS011;8599;47.852;12.070;2024-01-10T00:17:20;33.53;;;12.90;;
16965;SDS011;8599;47.852;12.070;2024-01-10T00:19:47;36.07;;;12.67;;
16965;SDS011;8599;47.852;12.070;2024-01-10T00:22:13;34.67;;;14.00;;
16965;SDS011;8599;47.852;12.070;2024-01-10T00:24:40;39.77;;;13.77;;
16965;SDS011;8599;47.852;12.070;2024-01-10T00:27:07;32.03;;;13.20;;
16965;SDS011;8599;47.852;12.070;2024-01-10T00:29:35;34.93;;;13.43;;
16965;SDS011;8599;47.852;12.070;2024-01-10T00:32:02;36.43;;;13.40;;
16965;SDS011;8599;47.852;12.070;2024-01-10T00:34:30;39.13;;;14.47;;
16965;SDS011;8599;47.852;12.070;2024-01-10T00:36:56;39.37;;;14.93;;
16965;SDS011;8599;47.852;12.070;2024-01-10T00:39:23;36.33;;;14.90;;
16965;SDS011;8599;47.852;12.070;2024-01-10T00:41:50;33.23;;;13.33;;
16965;SDS011;8599;47.852;12.070;2024-01-10T00:44:17;39.07;;;15.83;;
16965;SDS011;8599;47.852;12.070;2024-01-10T00:46:44;33.97;;;13.07;;
16965;SDS011;8599;47.852;12.070;2024-01-10T00:49:10;39.40;;;13.87;;
16965;SDS011;8599;47.852;12.070;2024-01-10T00:51:39;38.97;;;13.77;;
16965;SDS011;8599;47.852;12.070;2024-01-10T00:54:05;44.97;;;14.53;;
16965;SDS011;8599;47.852;12.070;2024-01-10T00:56:32;40.83;;;13.73;;
16965;SDS011;8599;47.852;12.070;2024-01-10T00:58:59;40.43;;;15.10;;
16965;SDS011;8599;47.852;12.070;2024-01-10T01:01:26;38.80;;;14.73;;
16965;SDS011;8599;47.852;12.070;2024-01-10T01:03:53;38.90;;;14.33;;
16965;SDS011;8599;47.852;12.070;2024-01-10T01:06:20;37.97;;;13.17;;
16965;SDS011;8599;47.852;12.070;2024-01-10T01:08:48;39.17;;;16.30;;
16965;SDS011;8599;47.852;12.070;2024-01-10T01:11:15;39.93;;;15.27;;
16965;SDS011;8599;47.852;12.070;2024-01-10T01:13:41;39.27;;;14.67;;
16965;SDS011;8599;47.852;12.070;2024-01-10T01:16:09;40.90;;;13.83;;
16965;SDS011;8599;47.852;12.070;2024-01-10T01:18:36;34.37;;;14.73;;
16965;SDS011;8599;47.852;12.070;2024-01-10T01:21:03;37.27;;;14.40;;
16965;SDS011;8599;47.852;12.070;2024-01-10T01:23:30;39.27;;;14.10;;
16965;SDS011;8599;47.852;12.070;2024-01-10T01:25:58;36.67;;;13.57;;
16965;SDS011;8599;47.852;12.070;2024-01-10T01:28:25;38.67;;;15.30;;
16965;SDS011;8599;47.852;12.070;2024-01-10T01:30:52;36.33;;;14.60;;
16965;SDS011;8599;47.852;12.070;2024-01-10T01:33:19;40.63;;;13.83;;
16965;SDS011;8599;47.852;12.070;2024-01-10T01:35:45;43.43;;;14.83;;
16965;SDS011;8599;47.852;12.070;2024-01-10T01:38:12;39.83;;;14.13;;
16965;SDS011;8599;47.852;12.070;2024-01-10T01:40:39;41.73;;;15.00;;
16965;SDS011;8599;47.852;12.070;2024-01-10T01:43:19;46.77;;;16.40;;
16965;SDS011;8599;47.852;12.070;2024-01-10T01:45:47;39.50;;;14.73;;
16965;SDS011;8599;47.852;12.070;2024-01-10T01:48:16;42.97;;;15.13;;
16965;SDS011;8599;47.852;12.070;2024-01-10T01:50:43;42.37;;;14.37;;
16965;SDS011;8599;47.852;12.070;2024-01-10T01:53:11;37.60;;;14.07;;
16965;SDS011;8599;47.852;12.070;2024-01-10T01:55:38;39.97;;;15.40;;
16965;SDS011;8599;47.852;12.070;2024-01-10T01:58:06;40.80;;;15.07;;
16965;SDS011;8599;47.852;12.070;2024-01-10T02:00:34;43.17;;;14.40;;
16965;SDS011;8599;47.852;12.070;2024-01-10T02:03:03;49.00;;;16.57;;
16965;SDS011;8599;47.852;12.070;2024-01-10T02:05:31;45.63;;;15.40;;
16965;SDS011;8599;47.852;12.070;2024-01-10T02:07:58;44.47;;;13.63;;
16965;SDS011;8599;47.852;12.070;2024-01-10T02:10:25;37.50;;;14.93;;
16965;SDS011;8599;47.852;12.070;2024-01-10T02:12:52;36.10;;;14.03;;
16965;SDS011;8599;47.852;12.070;2024-01-10T02:15:19;42.43;;;14.67;;
16965;SDS011;8599;47.852;12.070;2024-01-10T02:17:47;42.07;;;14.40;;
16965;SDS011;8599;47.852;12.070;2024-01-10T02:20:15;36.00;;;15.03;;
16965;SDS011;8599;47.852;12.070;2024-01-10T02:22:42;40.47;;;15.17;;
16965;SDS011;8599;47.852;12.070;2024-01-10T02:25:11;42.90;;;13.50;;
16965;SDS011;8599;47.852;12.070;2024-01-10T02:27:39;42.40;;;15.83;;
16965;SDS011;8599;47.852;12.070;2024-01-10T02:30:07;41.33;;;15.17;;
16965;SDS011;8599;47.852;12.070;2024-01-10T02:32:36;38.70;;;16.47;;
16965;SDS011;8599;47.852;12.070;2024-01-10T02:35:03;42.60;;;15.33;;
16965;SDS011;8599;47.852;12.070;2024-01-10T02:37:31;39.80;;;15.00;;
16965;SDS011;8599;47.852;12.070;2024-01-10T02:40:01;39.67;;;14.83;;
16965;SDS011;8599;47.852;12.070;2024-01-10T02:42:29;45.57;;;14.93;;
16965;SDS011;8599;47.852;12.070;2024-01-10T02:44:57;41.80;;;14.60;;
16965;SDS011;8599;47.852;12.070;2024-01-10T02:47:23;35.23;;;12.87;;
16965;SDS011;8599;47.852;12.070;2024-01-10T02:49:50;42.87;;;15.93;;
16965;SDS011;8599;47.852;12.070;2024-01-10T02:52:17;41.30;;;13.90;;
16965;SDS011;8599;47.852;12.070;2024-01-10T02:54:44;37.43;;;14.07;;
16965;SDS011;8599;47.852;12.070;2024-01-10T02:57:11;35.03;;;13.73;;
16965;SDS011;8599;47.852;12.070;2024-01-10T02:59:40;52.67;;;14.10;;
16965;SDS011;8599;47.852;12.070;2024-01-10T03:02:07;43.83;;;14.87;;
16965;SDS011;8599;47.852;12.070;2024-01-10T03:04:33;40.40;;;16.10;;
16965;SDS011;8599;47.852;12.070;2024-01-10T03:07:00;40.03;;;14.40;;
16965;SDS011;8599;47.852;12.070;2024-01-10T03:09:27;34.60;;;14.17;;
16965;SDS011;8599;47.852;12.070;2024-01-10T03:11:54;43.37;;;14.07;;
16965;SDS011;8599;47.852;12.070;2024-01-10T03:14:21;47.47;;;15.17;;
16965;SDS011;8599;47.852;12.070;2024-01-10T03:16:49;49.53;;;15.30;;
16965;SDS011;8599;47.852;12.070;2024-01-10T03:19:16;42.37;;;14.20;;
16965;SDS011;8599;47.852;12.070;2024-01-10T03:21:43;35.03;;;14.40;;
16965;SDS011;8599;47.852;12.070;2024-01-10T03:24:09;44.87;;;14.93;;
16965;SDS011;8599;47.852;12.070;2024-01-10T03:26:36;45.60;;;15.20;;
16965;SDS011;8599;47.852;12.070;2024-01-10T03:29:03;44.23;;;16.03;;
16965;SDS011;8599;47.852;12.070;2024-01-10T03:31:30;50.03;;;16.67;;
16965;SDS011;8599;47.852;12.070;2024-01-10T03:33:59;43.80;;;16.20;;
16965;SDS011;8599;47.852;12.070;2024-01-10T03:36:26;39.73;;;15.93;;
16965;SDS011;8599;47.852;12.070;2024-01-10T03:38:52;41.43;;;15.20;;
16965;SDS011;8599;47.852;12.070;2024-01-10T03:41:19;42.70;;;16.80;;
16965;SDS011;8599;47.852;12.070;2024-01-10T03:43:47;50.60;;;16.10;;
16965;SDS011;8599;47.852;12.070;2024-01-10T03:46:15;48.50;;;15.33;;
16965;SDS011;8599;47.852;12.070;2024-01-10T03:48:42;43.63;;;16.07;;
16965;SDS011;8599;47.852;12.070;2024-01-10T03:51:14;36.47;;;15.43;;
16965;SDS011;8599;47.852;12.070;2024-01-10T03:53:42;43.77;;;16.83;;
16965;SDS011;8599;47.852;12.070;2024-01-10T03:56:09;48.63;;;16.83;;
16965;SDS011;8599;47.852;12.070;2024-01-10T03:58:36;43.60;;;15.57;;
16965;SDS011;8599;47.852;12.070;2024-01-10T04:01:04;48.40;;;16.33;;
16965;SDS011;8599;47.852;12.070;2024-01-10T04:03:32;50.97;;;17.30;;
16965;SDS011;8599;47.852;12.070;2024-01-10T04:05:59;50.27;;;16.97;;
16965;SDS011;8599;47.852;12.070;2024-01-10T04:08:28;44.83;;;16.23;;
16965;SDS011;8599;47.852;12.070;2024-01-10T04:10:55;45.90;;;16.27;;
16965;SDS011;8599;47.852;12.070;2024-01-10T04:13:22;46.60;;;16.03;;
16965;SDS011;8599;47.852;12.070;2024-01-10T04:15:49;39.00;;;15.07;;
16965;SDS011;8599;47.852;12.070;2024-01-10T04:18:16;43.80;;;16.27;;
16965;SDS011;8599;47.852;12.070;2024-01-10T04:20:43;43.97;;;16.10;;
16965;SDS011;8599;47.852;12.070;2024-01-10T04:23:10;46.47;;;15.30;;
16965;SDS011;8599;47.852;12.070;2024-01-10T04:25:38;88.33;;;24.93;;
16965;SDS011;8599;47.852;12.070;2024-01-10T04:28:05;44.67;;;17.30;;
16965;SDS011;8599;47.852;12.070;2024-01-10T04:30:32;44.83;;;15.63;;
16965;SDS011;8599;47.852;12.070;2024-01-10T04:32:59;48.67;;;15.97;;
16965;SDS011;8599;47.852;12.070;2024-01-10T04:35:26;46.53;;;17.37;;
16965;SDS011;8599;47.852;12.070;2024-01-10T04:37:53;51.63;;;18.90;;
16965;SDS011;8599;47.852;12.070;2024-01-10T04:40:20;55.73;;;18.33;;
16965;SDS011;8599;47.852;12.070;2024-01-10T04:42:48;47.97;;;15.23;;
16965;SDS011;8599;47.852;12.070;2024-01-10T04:45:15;47.53;;;17.23;;
16965;SDS011;8599;47.852;12.070;2024-01-10T04:47:42;51.97;;;17.80;;
16965;SDS011;8599;47.852;12.070;2024-01-10T04:50:10;42.20;;;15.43;;
16965;SDS011;8599;47.852;12.070;2024-01-10T04:52:37;45.23;;;16.10;;
16965;SDS011;8599;47.852;12.070;2024-01-10T04:55:04;45.47;;;14.97;;
16965;SDS011;8599;47.852;12.070;2024-01-10T04:57:33;45.47;;;16.53;;
16965;SDS011;8599;47.852;12.070;2024-01-10T05:00:01;49.77;;;17.37;;
16965;SDS011;8599;47.852;12.070;2024-01-10T05:02:28;53.43;;;17.10;;
16965;SDS011;8599;47.852;12.070;2024-01-10T05:04:55;45.27;;;16.07;;
16965;SDS011;8599;47.852;12.070;2024-01-10T05:07:22;50.97;;;17.63;;
16965;SDS011;8599;47.852;12.070;2024-01-10T05:09:48;43.93;;;15.60;;
16965;SDS011;8599;47.852;12.070;2024-01-10T05:12:15;47.03;;;16.10;;
16965;SDS011;8599;47.852;12.070;2024-01-10T05:14:42;56.30;;;16.23;;
16965;SDS011;8599;47.852;12.070;2024-01-10T05:17:11;43.30;;;15.87;;
16965;SDS011;8599;47.852;12.070;2024-01-10T05:19:38;48.87;;;17.33;;
16965;SDS011;8599;47.852;12.070;2024-01-10T05:22:05;49.40;;;17.13;;
16965;SDS011;8599;47.852;12.070;2024-01-10T05:24:32;43.80;;;15.93;;
16965;SDS011;8599;47.852;12.070;2024-01-10T05:26:59;45.27;;;15.07;;
16965;SDS011;8599;47.852;12.070;2024-01-10T05:29:26;56.03;;;17.00;;
16965;SDS011;8599;47.852;12.070;2024-01-10T05:31:52;46.37;;;16.07;;
16965;SDS011;8599;47.852;12.070;2024-01-10T05:34:21;47.80;;;15.07;;
16965;SDS011;8599;47.852;12.070;2024-01-10T05:36:47;55.10;;;15.00;;
16965;SDS011;8599;47.852;12.070;2024-01-10T05:39:14;52.47;;;15.07;;
16965;SDS011;8599;47.852;12.070;2024-01-10T05:41:41;46.83;;;15.53;;
16965;SDS011;8599;47.852;12.070;2024-01-10T05:44:09;49.10;;;15.87;;
16965;SDS011;8599;47.852;12.070;2024-01-10T05:46:36;47.53;;;15.63;;
16965;SDS011;8599;47.852;12.070;2024-01-10T05:49:03;50.93;;;17.63;;
16965;SDS011;8599;47.852;12.070;2024-01-10T05:51:32;38.03;;;14.03;;
16965;SDS011;8599;47.852;12.070;2024-01-10T05:53:58;46.03;;;16.10;;
16965;SDS011;8599;47.852;12.070;2024-01-10T05:56:25;51.03;;;16.20;;
16965;SDS011;8599;47.852;12.070;2024-01-10T05:58:53;61.17;;;19.27;;
16965;SDS011;8599;47.852;12.070;2024-01-10T06:01:20;48.07;;;16.67;;
16965;SDS011;8599;47.852;12.070;2024-01-10T06:03:46;50.30;;;17.83;;
16965;SDS011;8599;47.852;12.070;2024-01-10T06:06:13;56.33;;;18.63;;
16965;SDS011;8599;47.852;12.070;2024-01-10T06:08:41;41.37;;;14.87;;
16965;SDS011;8599;47.852;12.070;2024-01-10T06:11:08;56.37;;;18.50;;
16965;SDS011;8599;47.852;12.070;2024-01-10T06:13:35;51.13;;;17.23;;
16965;SDS011;8599;47.852;12.070;2024-01-10T06:16:02;53.17;;;19.03;;
16965;SDS011;8599;47.852;12.070;2024-01-10T06:18:29;61.80;;;19.73;;
16965;SDS011;8599;47.852;12.070;2024-01-10T06:20:56;45.13;;;15.90;;
16965;SDS011;8599;47.852;12.070;2024-01-10T06:23:23;44.33;;;16.27;;
16965;SDS011;8599;47.852;12.070;2024-01-10T06:25:51;64.57;;;23.53;;
16965;SDS011;8599;47.852;12.070;2024-01-10T06:28:19;55.70;;;18.10;;
16965;SDS011;8599;47.852;12.070;2024-01-10T06:30:46;49.57;;;18.20;;
16965;SDS011;8599;47.852;12.070;2024-01-10T06:33:13;58.93;;;18.73;;
16965;SDS011;8599;47.852;12.070;2024-01-10T06:35:40;45.10;;;16.43;;
16965;SDS011;8599;47.852;12.070;2024-01-10T06:38:08;70.25;;;29.95;;
16965;SDS011;8599;47.852;12.070;2024-01-10T06:40:35;60.53;;;22.80;;
16965;SDS011;8599;47.852;12.070;2024-01-10T06:43:04;72.32;;;27.85;;
16965;SDS011;8599;47.852;12.070;2024-01-10T06:45:33;58.37;;;21.63;;
16965;SDS011;8599;47.852;12.070;2024-01-10T06:48:00;66.37;;;19.67;;
16965;SDS011;8599;47.852;12.070;2024-01-10T06:50:27;57.00;;;18.97;;
16965;SDS011;8599;47.852;12.070;2024-01-10T06:52:55;52.40;;;17.03;;
16965;SDS011;8599;47.852;12.070;2024-01-10T06:55:22;51.27;;;16.87;;
16965;SDS011;8599;47.852;12.070;2024-01-10T06:57:51;54.37;;;18.13;;
16965;SDS011;8599;47.852;12.070;2024-01-10T07:00:20;49.60;;;17.83;;
16965;SDS011;8599;47.852;12.070;2024-01-10T07:02:48;62.23;;;19.33;;
16965;SDS011;8599;47.852;12.070;2024-01-10T07:05:15;79.00;;;33.90;;
16965;SDS011;8599;47.852;12.070;2024-01-10T07:07:42;69.90;;;25.17;;
16965;SDS011;8599;47.852;12.070;2024-01-10T07:10:09;66.97;;;22.43;;
16965;SDS011;8599;47.852;12.070;2024-01-10T07:12:36;65.97;;;22.37;;
16965;SDS011;8599;47.852;12.070;2024-01-10T07:15:04;61.03;;;20.33;;
16965;SDS011;8599;47.852;12.070;2024-01-10T07:17:33;64.77;;;20.20;;
16965;SDS011;8599;47.852;12.070;2024-01-10T07:20:00;61.50;;;17.70;;
16965;SDS011;8599;47.852;12.070;2024-01-10T07:22:28;63.17;;;19.73;;
16965;SDS011;8599;47.852;12.070;2024-01-10T07:24:54;49.10;;;18.20;;
16965;SDS011;8599;47.852;12.070;2024-01-10T07:27:22;55.10;;;17.87;;
16965;SDS011;8599;47.852;12.070;2024-01-10T07:29:49;56.37;;;17.03;;
16965;SDS011;8599;47.852;12.070;2024-01-10T07:32:16;53.53;;;17.90;;
16965;SDS011;8599;47.852;12.070;2024-01-10T07:34:46;49.37;;;18.03;;
16965;SDS011;8599;47.852;12.070;2024-01-10T07:37:13;54.60;;;18.27;;
16965;SDS011;8599;47.852;12.070;2024-01-10T07:39:41;49.53;;;17.13;;
16965;SDS011;8599;47.852;12.070;2024-01-10T07:42:08;46.13;;;16.43;;
16965;SDS011;8599;47.852;12.070;2024-01-10T07:44:35;60.63;;;20.00;;
16965;SDS011;8599;47.852;12.070;2024-01-10T07:47:02;54.07;;;18.53;;
16965;SDS011;8599;47.852;12.070;2024-01-10T07:49:29;69.07;;;21.27;;
16965;SDS011;8599;47.852;12.070;2024-01-10T07:51:58;59.13;;;19.63;;
16965;SDS011;8599;47.852;12.070;2024-01-10T07:54:25;50.13;;;17.87;;
16965;SDS011;8599;47.852;12.070;2024-01-10T07:56:52;51.10;;;16.53;;
16965;SDS011;8599;47.852;12.070;2024-01-10T07:59:19;56.27;;;17.60;;
16965;SDS011;8599;47.852;12.070;2024-01-10T08:01:54;70.90;;;20.20;;
16965;SDS011;8599;47.852;12.070;2024-01-10T08:04:21;53.40;;;18.67;;
16965;SDS011;8599;47.852;12.070;2024-01-10T08:06:48;54.57;;;16.77;;
16965;SDS011;8599;47.852;12.070;2024-01-10T08:09:16;52.87;;;16.73;;
16965;SDS011;8599;47.852;12.070;2024-01-10T08:11:44;47.33;;;16.93;;
16965;SDS011;8599;47.852;12.070;2024-01-10T08:14:11;48.87;;;17.10;;
16965;SDS011;8599;47.852;12.070;2024-01-10T08:16:37;49.27;;;15.47;;
16965;SDS011;8599;47.852;12.070;2024-01-10T08:19:04;49.17;;;16.73;;
16965;SDS011;8599;47.852;12.070;2024-01-10T08:21:31;47.47;;;16.80;;
16965;SDS011;8599;47.852;12.070;2024-01-10T08:23:58;56.83;;;18.37;;
16965;SDS011;8599;47.852;12.070;2024-01-10T08:26:27;52.20;;;17.40;;
16965;SDS011;8599;47.852;12.070;2024-01-10T08:28:54;63.83;;;18.90;;
16965;SDS011;8599;47.852;12.070;2024-01-10T08:31:21;70.80;;;22.93;;
16965;SDS011;8599;47.852;12.070;2024-01-10T08:33:48;53.80;;;16.80;;
16965;SDS011;8599;47.852;12.070;2024-01-10T08:36:15;59.17;;;17.83;;
16965;SDS011;8599;47.852;12.070;2024-01-10T08:38:43;49.77;;;17.37;;
16965;SDS011;8599;47.852;12.070;2024-01-10T08:41:11;45.90;;;14.57;;
16965;SDS011;8599;47.852;12.070;2024-01-10T08:43:40;44.00;;;15.23;;
16965;SDS011;8599;47.852;12.070;2024-01-10T08:46:08;46.57;;;14.87;;
16965;SDS011;8599;47.852;12.070;2024-01-10T08:48:35;49.27;;;14.97;;
16965;SDS011;8599;47.852;12.070;2024-01-10T08:51:02;58.40;;;19.07;;
16965;SDS011;8599;47.852;12.070;2024-01-10T08:53:29;50.93;;;17.00;;
16965;SDS011;8599;47.852;12.070;2024-01-10T08:55:57;53.20;;;17.83;;
16965;SDS011;8599;47.852;12.070;2024-01-10T08:58:24;66.43;;;18.13;;
16965;SDS011;8599;47.852;12.070;2024-01-10T09:00:52;59.20;;;18.47;;
16965;SDS011;8599;47.852;12.070;2024-01-10T09:03:19;42.97;;;16.93;;
16965;SDS011;8599;47.852;12.070;2024-01-10T09:05:45;60.50;;;18.87;;
16965;SDS011;8599;47.852;12.070;2024-01-10T09:08:12;55.90;;;16.90;;
16965;SDS011;8599;47.852;12.070;2024-01-10T09:10:40;65.37;;;20.73;;
16965;SDS011;8599;47.852;12.070;2024-01-10T09:13:07;54.17;;;17.07;;
16965;SDS011;8599;47.852;12.070;2024-01-10T09:15:34;59.50;;;17.30;;
16965;SDS011;8599;47.852;12.070;2024-01-10T09:18:02;59.90;;;18.20;;
16965;SDS011;8599;47.852;12.070;2024-01-10T09:20:29;48.90;;;17.63;;
16965;SDS011;8599;47.852;12.070;2024-01-10T09:22:56;72.30;;;19.17;;
16965;SDS011;8599;47.852;12.070;2024-01-10T09:25:25;76.13;;;20.63;;
16965;SDS011;8599;47.852;12.070;2024-01-10T09:27:52;60.20;;;15.70;;
16965;SDS011;8599;47.852;12.070;2024-01-10T09:30:19;45.47;;;15.37;;
16965;SDS011;8599;47.852;12.070;2024-01-10T09:32:46;50.37;;;16.10;;
16965;SDS011;8599;47.852;12.070;2024-01-10T09:35:14;45.40;;;16.20;;
16965;SDS011;8599;47.852;12.070;2024-01-10T09:37:42;47.00;;;16.87;;
16965;SDS011;8599;47.852;12.070;2024-01-10T09:40:11;57.67;;;16.03;;
16965;SDS011;8599;47.852;12.070;2024-01-10T09:42:41;87.20;;;18.27;;
16965;SDS011;8599;47.852;12.070;2024-01-10T09:45:09;69.07;;;20.30;;
16965;SDS011;8599;47.852;12.070;2024-01-10T09:47:38;55.93;;;20.30;;
16965;SDS011;8599;47.852;12.070;2024-01-10T09:50:08;57.17;;;18.33;;
16965;SDS011;8599;47.852;12.070;2024-01-10T09:52:39;53.87;;;17.17;;
16965;SDS011;8599;47.852;12.070;2024-01-10T09:55:11;49.43;;;16.00;;
16965;SDS011;8599;47.852;12.070;2024-01-10T09:57:41;50.53;;;15.57;;
16965;SDS011;8599;47.852;12.070;2024-01-10T10:00:08;39.10;;;14.47;;
16965;SDS011;8599;47.852;12.070;2024-01-10T10:02:38;51.60;;;15.70;;
16965;SDS011;8599;47.852;12.070;2024-01-10T10:05:07;44.20;;;14.37;;
16965;SDS011;8599;47.852;12.070;2024-01-10T10:07:46;45.20;;;14.13;;
16965;SDS011;8599;47.852;12.070;2024-01-10T10:10:13;39.90;;;13.43;;
16965;SDS011;8599;47.852;12.070;2024-01-10T10:12:43;46.13;;;13.63;;
16965;SDS011;8599;47.852;12.070;2024-01-10T10:15:12;42.87;;;14.87;;
16965;SDS011;8599;47.852;12.070;2024-01-10T10:17:40;43.43;;;14.97;;
16965;SDS011;8599;47.852;12.070;2024-01-10T10:20:12;51.27;;;15.23;;
16965;SDS011;8599;47.852;12.070;2024-01-10T10:22:40;43.63;;;14.70;;
16965;SDS011;8599;47.852;12.070;2024-01-10T10:25:28;36.60;;;14.13;;
16965;SDS011;8599;47.852;12.070;2024-01-10T10:27:57;45.83;;;15.40;;
16965;SDS011;8599;47.852;12.070;2024-01-10T10:30:24;40.17;;;14.47;;
16965;SDS011;8599;47.852;12.070;2024-01-10T10:32:51;48.47;;;15.83;;
16965;SDS011;8599;47.852;12.070;2024-01-10T10:35:19;44.83;;;16.50;;
16965;SDS011;8599;47.852;12.070;2024-01-10T10:37:47;49.70;;;14.93;;
16965;SDS011;8599;47.852;12.070;2024-01-10T10:40:16;47.80;;;15.83;;
16965;SDS011;8599;47.852;12.070;2024-01-10T10:42:44;48.47;;;15.27;;
16965;SDS011;8599;47.852;12.070;2024-01-10T10:45:13;54.27;;;16.13;;
16965;SDS011;8599;47.852;12.070;2024-01-10T10:47:41;48.67;;;14.67;;
16965;SDS011;8599;47.852;12.070;2024-01-10T10:50:11;44.60;;;15.67;;
16965;SDS011;8599;47.852;12.070;2024-01-10T10:52:41;41.80;;;16.00;;
16965;SDS011;8599;47.852;12.070;2024-01-10T10:55:12;45.63;;;15.37;;
16965;SDS011;8599;47.852;12.070;2024-01-10T10:57:42;47.87;;;17.00;;
16965;SDS011;8599;47.852;12.070;2024-01-10T11:00:11;38.77;;;15.30;;
16965;SDS011;8599;47.852;12.070;2024-01-10T11:02:40;41.57;;;14.10;;
16965;SDS011;8599;47.852;12.070;2024-01-10T11:05:07;38.40;;;14.23;;
16965;SDS011;8599;47.852;12.070;2024-01-10T11:07:35;50.03;;;15.43;;
16965;SDS011;8599;47.852;12.070;2024-01-10T11:10:02;45.57;;;15.03;;
16965;SDS011;8599;47.852;12.070;2024-01-10T11:12:34;42.87;;;15.27;;
16965;SDS011;8599;47.852;12.070;2024-01-10T11:15:32;43.97;;;14.77;;
16965;SDS011;8599;47.852;12.070;2024-01-10T11:18:12;45.23;;;15.43;;
16965;SDS011;8599;47.852;12.070;2024-01-10T11:20:56;46.57;;;16.33;;
16965;SDS011;8599;47.852;12.070;2024-01-10T11:26:15;53.73;;;17.90;;
16965;SDS011;8599;47.852;12.070;2024-01-10T11:28:44;58.03;;;21.00;;
16965;SDS011;8599;47.852;12.070;2024-01-10T11:31:13;48.17;;;19.07;;
16965;SDS011;8599;47.852;12.070;2024-01-10T11:33:41;45.47;;;16.83;;
16965;SDS011;8599;47.852;12.070;2024-01-10T11:36:11;42.90;;;15.70;;
16965;SDS011;8599;47.852;12.070;2024-01-10T11:38:42;53.67;;;15.90;;
16965;SDS011;8599;47.852;12.070;2024-01-10T11:41:10;44.17;;;15.87;;
16965;SDS011;8599;47.852;12.070;2024-01-10T11:43:38;39.40;;;15.70;;
16965;SDS011;8599;47.852;12.070;2024-01-10T11:46:05;36.90;;;14.43;;
16965;SDS011;8599;47.852;12.070;2024-01-10T11:48:34;57.00;;;15.83;;
16965;SDS011;8599;47.852;12.070;2024-01-10T11:51:04;47.57;;;16.57;;
16965;SDS011;8599;47.852;12.070;2024-01-10T11:53:38;41.03;;;15.20;;
16965;SDS011;8599;47.852;12.070;2024-01-10T11:56:11;40.63;;;16.07;;
16965;SDS011;8599;47.852;12.070;2024-01-10T11:58:53;39.70;;;14.63;;
16965;SDS011;8599;47.852;12.070;2024-01-10T12:01:20;41.53;;;15.83;;
16965;SDS011;8599;47.852;12.070;2024-01-10T12:03:49;46.23;;;14.20;;
16965;SDS011;8599;47.852;12.070;2024-01-10T12:06:18;31.37;;;14.57;;
16965;SDS011;8599;47.852;12.070;2024-01-10T12:08:47;47.80;;;15.80;;
16965;SDS011;8599;47.852;12.070;2024-01-10T12:11:14;47.67;;;15.93;;
16965;SDS011;8599;47.852;12.070;2024-01-10T12:13:41;58.03;;;16.93;;
16965;SDS011;8599;47.852;12.070;2024-01-10T12:16:08;54.50;;;19.07;;
16965;SDS011;8599;47.852;12.070;2024-01-10T12:18:36;56.63;;;18.23;;
16965;SDS011;8599;47.852;12.070;2024-01-10T12:21:05;70.17;;;20.33;;
16965;SDS011;8599;47.852;12.070;2024-01-10T12:23:33;63.90;;;19.60;;
16965;SDS011;8599;47.852;12.070;2024-01-10T12:26:01;58.77;;;17.83;;
16965;SDS011;8599;47.852;12.070;2024-01-10T12:28:29;59.33;;;20.17;;
16965;SDS011;8599;47.852;12.070;2024-01-10T12:30:56;65.57;;;19.27;;
16965;SDS011;8599;47.852;12.070;2024-01-10T12:33:23;58.90;;;18.33;;
16965;SDS011;8599;47.852;12.070;2024-01-10T12:38:35;69.67;;;20.73;;
16965;SDS011;8599;47.852;12.070;2024-01-10T12:41:04;68.73;;;20.27;;
16965;SDS011;8599;47.852;12.070;2024-01-10T12:43:34;79.67;;;20.83;;
16965;SDS011;8599;47.852;12.070;2024-01-10T12:46:07;75.57;;;20.97;;
16965;SDS011;8599;47.852;12.070;2024-01-10T12:48:35;73.30;;;21.60;;
16965;SDS011;8599;47.852;12.070;2024-01-10T12:51:07;62.30;;;20.50;;
16965;SDS011;8599;47.852;12.070;2024-01-10T12:53:35;86.03;;;24.27;;
16965;SDS011;8599;47.852;12.070;2024-01-10T12:56:03;77.97;;;20.27;;
16965;SDS011;8599;47.852;12.070;2024-01-10T12:58:30;66.43;;;22.23;;
16965;SDS011;8599;47.852;12.070;2024-01-10T13:00:57;79.23;;;24.00;;
16965;SDS011;8599;47.852;12.070;2024-01-10T13:03:25;83.97;;;24.77;;
16965;SDS011;8599;47.852;12.070;2024-01-10T13:05:53;71.97;;;20.83;;
16965;SDS011;8599;47.852;12.070;2024-01-10T13:08:21;63.73;;;17.63;;
16965;SDS011;8599;47.852;12.070;2024-01-10T13:10:48;63.17;;;18.70;;
16965;SDS011;8599;47.852;12.070;2024-01-10T13:13:15;63.13;;;18.30;;
16965;SDS011;8599;47.852;12.070;2024-01-10T13:15:42;64.13;;;18.23;;
16965;SDS011;8599;47.852;12.070;2024-01-10T13:18:10;69.87;;;18.23;;
16965;SDS011;8599;47.852;12.070;2024-01-10T13:20:37;57.27;;;18.53;;
16965;SDS011;8599;47.852;12.070;2024-01-10T13:23:04;75.77;;;20.37;;
16965;SDS011;8599;47.852;12.070;2024-01-10T13:25:32;71.73;;;20.43;;
16965;SDS011;8599;47.852;12.070;2024-01-10T13:27:59;70.97;;;21.93;;
16965;SDS011;8599;47.852;12.070;2024-01-10T13:30:26;80.63;;;21.40;;
16965;SDS011;8599;47.852;12.070;2024-01-10T13:32:53;68.43;;;18.90;;
16965;SDS011;8599;47.852;12.070;2024-01-10T13:35:20;81.17;;;20.27;;
16965;SDS011;8599;47.852;12.070;2024-01-10T13:37:47;69.33;;;22.07;;
16965;SDS011;8599;47.852;12.070;2024-01-10T13:40:14;70.87;;;22.00;;
16965;SDS011;8599;47.852;12.070;2024-01-10T13:42:43;67.27;;;19.37;;
16965;SDS011;8599;47.852;12.070;2024-01-10T13:45:09;66.00;;;19.70;;
16965;SDS011;8599;47.852;12.070;2024-01-10T13:47:37;68.27;;;19.73;;
16965;SDS011;8599;47.852;12.070;2024-01-10T13:50:04;63.77;;;17.63;;
16965;SDS011;8599;47.852;12.070;2024-01-10T13:52:32;68.80;;;20.40;;
16965;SDS011;8599;47.852;12.070;2024-01-10T13:54:59;65.43;;;18.67;;
16965;SDS011;8599;47.852;12.070;2024-01-10T13:57:26;61.00;;;19.00;;
16965;SDS011;8599;47.852;12.070;2024-01-10T13:59:54;65.27;;;18.07;;
16965;SDS011;8599;47.852;12.070;2024-01-10T14:02:21;86.57;;;21.47;;
16965;SDS011;8599;47.852;12.070;2024-01-10T14:04:48;75.30;;;21.67;;
16965;SDS011;8599;47.852;12.070;2024-01-10T14:07:15;66.00;;;19.13;;
16965;SDS011;8599;47.852;12.070;2024-01-10T14:09:42;59.97;;;17.33;;
16965;SDS011;8599;47.852;12.070;2024-01-10T14:12:10;66.23;;;18.23;;
16965;SDS011;8599;47.852;12.070;2024-01-10T14:14:37;68.47;;;20.57;;
16965;SDS011;8599;47.852;12.070;2024-01-10T14:17:05;73.53;;;20.53;;
16965;SDS011;8599;47.852;12.070;2024-01-10T14:19:32;57.37;;;17.37;;
16965;SDS011;8599;47.852;12.070;2024-01-10T14:21:59;58.00;;;18.90;;
16965;SDS011;8599;47.852;12.070;2024-01-10T14:24:26;61.77;;;17.60;;
16965;SDS011;8599;47.852;12.070;2024-01-10T14:26:53;67.30;;;19.57;;
16965;SDS011;8599;47.852;12.070;2024-01-10T14:29:20;58.20;;;18.33;;